Cedar City, Utah Weather observations

Data are for observation ending at time listed.
 Day   Time    Ave.   Ave.  Ave.  Vector   Max.   Stn.    Total    Solar   Ave.  
  of    of     Air    Rel.  Wind   Wind    Wind   Baro.  Precip.   Rad.    Soil  
Year   Day     Temp.  Hum.  Speed  Dir.    Gust   Pres.                    Temp. 
2014   (MST)    F      %     mph   deg.    mph     mb.     in.     W/m2     F   
------------------------------------------------------------------------------
 240   15:50   81.6    22    1.2   249      3.4   827.3    0.00     615    65.8
 240   16:00   80.1    21    2.9    20      6.6   827.3    0.00     588    65.9
 240   16:10   80.5    20    1.9   349      6.4   827.3    0.00     561    66.0
 240   16:20   79.8    19    3.1    29      7.7   827.2    0.00     486    66.1
 240   16:30   79.8    20    2.3    13      7.2   827.1    0.00     496    66.1
 240   16:40   79.6    19    3.3    72      8.3   827.0    0.00     463    66.2
 240   16:50   80.1    18    1.9   336      5.3   826.9    0.00     416    66.2
 240   17:00   80.6    18    1.9   289      6.8   826.8    0.00     403    66.3
 240   17:10   80.4    19    2.2    23      6.3   826.8    0.00     352    66.4
 240   17:20   79.9    19    3.3   298      7.2   826.8    0.00     336    66.4
 240   17:30   80.4    18    1.8   310      5.4   826.8    0.00     303    66.5
 240   17:40   80.4    19    2.9   319      7.3   826.7    0.00     266    66.5
 240   17:50   80.0    18    2.7   329      6.9   826.6    0.00     234    66.6
 240   18:00   79.7    17    1.9     2      4.3   826.6    0.00     199    66.6
 240   18:10   80.3    16    1.6    14      4.2   826.5    0.00     166    66.7
 240   18:20   79.8    16    1.8   357      4.7   826.5    0.00     135    66.7
 240   18:30   79.1    18    2.0    24      5.0   826.4    0.00      99    66.7
 240   18:40   78.6    18    2.0    31      4.5   826.3    0.00      62    66.8
 240   18:50   77.4    19    2.2    40      5.8   826.4    0.00      14    66.9
 240   19:00   75.6    24    1.3     5      2.5   826.4    0.00       7    66.9
 240   19:10   72.8    29    0.8    11      2.6   826.4    0.02       2    66.9
 240   19:20   71.7    29    0.6    36      1.9   826.3    0.01       0    67.0
 240   19:30   69.7    36    0.6    46      3.4   826.4    0.01       0    67.1
 240   19:40   71.5    27    2.5    91      4.3   826.5    0.00       0    67.1
 240   19:50   70.9    27    3.9    87      6.2   826.5    0.00       0    67.1
 240   20:00   69.5    28    4.5   100      8.1   826.6    0.00       0    67.1
 240   20:10   68.7    29    5.2    95      9.1   826.7    0.00       0    67.2
 240   20:20   67.9    30    5.0    98      9.6   826.8    0.00       0    67.2
 240   20:30   67.7    30    5.3    96     10.1   826.9    0.00       0    67.1
 240   20:40   67.5    31    5.5    95     10.8   827.0    0.00       0    67.1
 240   20:50   67.2    29    5.7   100     10.4   827.1    0.00       0    67.1
 240   21:00   67.2    29    5.3    98     10.0   827.1    0.00       0    67.0
 240   21:10   67.1    29    5.3    96      9.7   827.2    0.00       0    66.9
 240   21:20   66.8    30    5.0   107     10.5   827.2    0.00       0    66.9
 240   21:30   66.5    30    5.6   100     10.2   827.2    0.00       0    66.8
 240   21:40   66.2    30    5.2    99      9.6   827.2    0.00       0    66.7
 240   21:50   66.4    30    5.6    92      9.6   827.2    0.00       0    66.6
 240   22:00   65.9    31    5.5    98     11.6   827.2    0.00       0    66.5
 240   22:10   65.8    31    7.0    98     12.0   827.2    0.00       0    66.5
 240   22:20   65.5    31    6.6    99     13.9   827.2    0.00       0    66.4
 240   22:30   65.3    32    6.1    99     11.7   827.2    0.00       0    66.3
 240   22:40   65.0    32    5.5   102     12.3   827.2    0.00       0    66.2
 240   22:50   64.8    32    4.9   110     10.4   827.2    0.00       0    66.1
 240   23:00   64.2    33    2.2   164      7.2   827.2    0.00       0    66.0
 240   23:10   63.6    34    2.3   154      7.8   827.2    0.00       0    65.9
 240   23:20   64.7    32    4.7    88      8.8   827.2    0.00       0    65.9
 240   23:30   64.5    32    3.3   110      6.7   827.2    0.00       0    65.8
 240   23:40   63.9    33    3.2   108      8.2   827.2    0.00       0    65.7
 240   23:50   63.6    33    3.8   107     10.4   827.2    0.00       0    65.7
 241    0:00   63.5    33    3.8   108      6.7   827.1    0.00       0    65.6
 241    0:10   63.4    33    4.4   101      7.4   827.1    0.00       0    65.5
 241    0:20   63.4    33    4.8   100      8.3   827.0    0.00       0    65.5
 241    0:30   63.4    33    5.4   100     10.7   826.9    0.00       0    65.4
 241    0:40   63.4    32    5.5    97     11.0   826.9    0.00       0    65.4
 241    0:50   63.3    32    6.1    95     10.6   826.8    0.00       0    65.3
 241    1:00   63.3    32    7.2    95     14.7   826.7    0.00       0    65.3
 241    1:10   63.0    33    5.0   103      8.6   826.7    0.00       0    65.2
 241    1:20   62.7    33    4.8   111      9.7   826.7    0.00       0    65.2
 241    1:30   62.7    33    5.4   105      9.4   826.7    0.00       0    65.1
 241    1:40   62.8    33    5.0   108     13.6   826.6    0.00       0    65.1
 241    1:50   62.6    33    4.3   107      8.0   826.7    0.00       0    65.0
 241    2:00   62.5    33    4.5   105      8.6   826.7    0.00       0    65.0
 241    2:10   62.4    33    4.9   102      9.0   826.7    0.00       0    64.9
 241    2:20   62.0    34    4.2   102      6.4   826.6    0.00       0    64.9
 241    2:30   62.1    34    5.0   100      8.0   826.6    0.00       0    64.9
 241    2:40   62.0    34    5.0   100      8.4   826.6    0.00       0    64.8
 241    2:50   61.8    34    4.9    97      8.1   826.6    0.00       0    64.8
 241    3:00   61.8    34    4.9    98      9.1   826.6    0.00       0    64.8
 241    3:10   61.8    34    5.8    96     10.4   826.5    0.00       0    64.7
 241    3:20   61.9    34    5.7    94     10.8   826.5    0.00       0    64.7
 241    3:30   61.7    34    5.7    98     11.6   826.4    0.00       0    64.7
 241    3:40   61.3    35    3.5   118      8.0   826.5    0.00       0    64.6
 241    3:50   60.9    36    4.1   110      8.0   826.5    0.00       0    64.6
 241    4:00   61.1    35    4.2   106      8.0   826.5    0.00       0    64.5
 241    4:10   60.9    36    4.1   104      7.5   826.5    0.00       0    64.5
 241    4:20   60.8    36    5.3   104     10.3   826.5    0.00       0    64.5
 241    4:30   60.9    36    4.3   103      7.2   826.5    0.00       0    64.4
 241    4:40   60.9    36    4.2   101      8.6   826.6    0.00       0    64.4
 241    4:50   60.9    36    4.0   103      8.0   826.6    0.00       0    64.3
 241    5:00   60.9    36    4.1   101      7.6   826.6    0.00       0    64.3
 241    5:10   61.1    35    4.7    99      9.0   826.6    0.00       0    64.3
 241    5:20   61.2    35    5.1    99      8.3   826.7    0.00       0    64.2
 241    5:30   61.3    35    5.5    97     10.4   826.7    0.00       0    64.2
 241    5:40   61.3    35    5.5    98     10.1   826.6    0.00       0    64.2
 241    5:50   61.1    35    5.3   102      8.8   826.6    0.00       0    64.2
 241    6:00   61.1    35    5.0   101     10.2   826.6    0.00       2    64.1
 241    6:10   61.3    35    5.9   100     13.8   826.7    0.00       5    64.1
 241    6:20   61.3    35    5.3   101     10.8   826.8    0.00       9    64.1
 241    6:30   61.3    35    6.1    96     10.8   826.8    0.00      12    64.0
 241    6:40   61.3    35    5.9   104     12.0   826.8    0.00      16    64.0
 241    6:50   61.9    35    5.0   105     10.2   826.9    0.00     106    64.0
 241    7:00   63.4    34    4.3   124      9.4   826.9    0.00     139    64.0
 241    7:10   64.3    34    3.5   109      6.6   827.0    0.00     141    64.0
 241    7:20   64.6    34    3.2   103      5.8   827.1    0.00     202    64.0
 241    7:30   65.8    33    2.9   116      7.0   827.0    0.00     234    63.9
 241    7:40   67.0    33    2.6   117      5.9   826.9    0.00     268    63.9
 241    7:50   68.8    32    2.2   116      5.3   827.0    0.00     293    64.0
 241    8:00   71.2    32    0.8   171      2.7   827.0    0.00     324    64.0
 241    8:10   75.4    28    0.5   170      3.0   827.0    0.00     369    63.9
 241    8:20   74.0    27    3.0    86      5.9   827.1    0.00     406    63.9
 241    8:30   71.3    33    2.1    40      3.7   827.1    0.00     417    63.9
 241    8:40   72.2    34    1.3    31      3.0   827.0    0.00     478    63.9
 241    8:50   72.2    35    2.1   315      3.7   827.1    0.00     499    64.0
 241    9:00   71.7    35    2.4   321      4.7   827.2    0.00     530    64.0
 241    9:10   72.2    35    1.9   328      3.7   827.5    0.00     562    64.0
 241    9:20   73.2    34    1.8   337      4.2   827.5    0.00     554    64.0
 241    9:30   73.7    31    1.7   325      4.0   827.5    0.00     534    64.0
 241    9:40   74.9    30    1.8   303      4.2   827.4    0.00     644    64.1
 241    9:50   75.8    27    1.3   302      2.9   827.6    0.00     668    64.1
 241   10:00   77.8    26    1.3   330      3.4   827.3    0.00     700    64.1
 241   10:10   78.3    26    1.1   324      3.5   827.4    0.00     724    64.2
 241   10:20   79.7    26    0.7    24      2.6   827.5    0.00     747    64.2
 241   10:30   79.9    25    0.7   359      2.8   827.4    0.00     769    64.2
 241   10:40   80.6    21    0.5    10      2.7   827.3    0.00     792    64.3
 241   10:50   80.2    21    1.6   286      4.5   827.1    0.00     803    64.3
 241   11:00   80.3    22    1.1   320      5.1   827.0    0.00     820    64.3
 241   11:10   80.9    20    1.6   280      5.8   826.9    0.00     835    64.4
 241   11:20   80.4    20    1.6   314      5.4   827.0    0.00     849    64.4
 241   11:30   80.8    19    2.1   288      8.5   827.0    0.00     863    64.5
 241   11:40   80.5    18    3.0   294      8.2   826.6    0.00     876    64.5
 241   11:50   81.5    19    1.9   265      6.9   826.7    0.00     887    64.5
 241   12:00   82.1    20    1.9   278      5.0   826.5    0.00     899    64.6
 241   12:10   83.0    17    1.6   315     10.7   826.5    0.00     905    64.7
 241   12:20   82.0    18    1.9   303      8.4   826.4    0.00     911    64.7
 241   12:30   82.2    18    1.4    17      4.5   826.3    0.00     916    64.7
 241   12:40   82.1    18    2.5   355      6.1   826.0    0.00     898    64.8
 241   12:50   82.5    17    2.6   285     12.3   826.0    0.00     866    64.9
 241   13:00   82.1    17    4.2   294      7.5   826.1    0.00     889    65.0
 241   13:10   81.9    15    3.3   305      7.6   825.9    0.00     901    65.1
 241   13:20   82.7    16    2.7   295      8.2   825.8    0.00     893    65.2
 241   13:30   83.3    15    2.9   280      7.5   825.7    0.00     881    65.2
 241   13:40   84.3    15    1.9   272      6.4   825.7    0.00     870    65.3
 241   13:50   84.3    15    1.9   304      5.3   825.3    0.00     863    65.4
 241   14:00   83.8    15    3.2   297      8.8   825.4    0.00     844    65.5
 241   14:10   83.7    15    2.3   313      6.0   825.3    0.00     775    65.6
 241   14:20   83.5    15    2.4   342      7.8   825.3    0.00     792    65.6
 241   14:30   83.8    15    2.6   356      9.3   825.1    0.00     849    65.7
 241   14:40   83.6    14    2.5     3      7.5   825.0    0.00     703    65.8
 241   14:50   84.6    16    2.5   265      9.4   824.9    0.00     673    65.9
 241   15:00   84.3    15    2.2   280      7.6   824.7    0.00     696    65.9
 241   15:10   84.3    14    2.7   306      5.3   824.8    0.00     680    66.0
 241   15:20   84.2    16    1.0   351      3.6   824.6    0.00     287    66.1
 241   15:30   86.3    14    0.4   351      4.5   824.6    0.00     388    66.2
 241   15:40   87.3    15    1.3   214      4.7   824.5    0.00     576    66.3

Return to Cedar City, Utah graphs page.


Western Regional Climate Center,wrcc@dri.edu